createdAt,value
2023-03-30T00:00:45.358Z,659.00
2023-03-30T00:01:45.352Z,660.00
2023-03-30T00:02:45.435Z,657.00
2023-03-30T00:03:45.589Z,657.00
2023-03-30T00:04:45.470Z,656.00
2023-03-30T00:05:45.365Z,658.00
2023-03-30T00:06:45.357Z,660.00
2023-03-30T00:07:45.346Z,659.00
2023-03-30T00:08:45.350Z,660.00
2023-03-30T00:09:45.341Z,659.00
2023-03-30T00:10:45.345Z,657.00
2023-03-30T00:11:45.339Z,659.00
2023-03-30T00:12:45.355Z,661.00
2023-03-30T00:13:45.372Z,660.00
2023-03-30T00:14:45.345Z,660.00
2023-03-30T00:15:45.347Z,658.00
2023-03-30T00:16:45.427Z,657.00
2023-03-30T00:17:45.484Z,657.00
2023-03-30T00:18:45.513Z,656.00
2023-03-30T00:19:45.565Z,653.00
2023-03-30T00:20:45.617Z,648.00
2023-03-30T00:21:45.588Z,646.00
2023-03-30T00:22:45.602Z,646.00
2023-03-30T00:23:45.606Z,652.00
2023-03-30T00:24:45.596Z,651.00
2023-03-30T00:25:45.598Z,653.00
2023-03-30T00:26:45.607Z,654.00
2023-03-30T00:27:45.616Z,656.00
2023-03-30T00:28:45.601Z,659.00
2023-03-30T00:29:45.608Z,657.00
2023-03-30T00:30:45.595Z,660.00
2023-03-30T00:31:45.618Z,659.00
2023-03-30T00:32:45.657Z,657.00
2023-03-30T00:33:47.365Z,658.00
2023-03-30T00:34:45.739Z,656.00
2023-03-30T00:35:45.780Z,655.00
2023-03-30T00:36:45.807Z,653.00
2023-03-30T00:37:45.893Z,652.00
2023-03-30T00:38:46.031Z,657.00
2023-03-30T00:39:45.969Z,656.00
2023-03-30T00:40:45.999Z,654.00
2023-03-30T00:41:46.047Z,654.00
2023-03-30T00:42:46.115Z,654.00
2023-03-30T00:43:46.152Z,652.00
2023-03-30T00:44:46.209Z,649.00
2023-03-30T00:45:46.293Z,650.00
2023-03-30T00:46:46.330Z,649.00
2023-03-30T00:47:46.417Z,653.00
2023-03-30T00:48:46.398Z,657.00
2023-03-30T00:49:46.460Z,658.00
2023-03-30T00:50:46.496Z,660.00
2023-03-30T00:51:46.558Z,662.00
2023-03-30T00:52:46.603Z,660.00
2023-03-30T00:53:46.664Z,658.00
2023-03-30T00:54:46.701Z,655.00
2023-03-30T00:55:46.753Z,655.00
2023-03-30T00:56:46.878Z,654.00
2023-03-30T00:57:46.867Z,654.00
2023-03-30T00:58:46.915Z,648.00
2023-03-30T00:59:46.959Z,646.00
2023-03-30T01:00:47.082Z,645.00
2023-03-30T01:01:47.080Z,649.00
2023-03-30T01:02:47.192Z,650.00
2023-03-30T01:03:47.308Z,651.00
2023-03-30T01:04:47.218Z,651.00
2023-03-30T01:05:47.285Z,655.00
2023-03-30T01:06:47.318Z,657.00
2023-03-30T01:07:47.376Z,657.00
2023-03-30T01:08:47.419Z,652.00
2023-03-30T01:09:47.480Z,650.00
2023-03-30T01:10:47.536Z,647.00
2023-03-30T01:11:47.589Z,645.00
2023-03-30T01:12:47.628Z,644.00
2023-03-30T01:13:47.734Z,646.00
2023-03-30T01:14:47.728Z,648.00
2023-03-30T01:15:47.815Z,645.00
2023-03-30T01:16:47.829Z,643.00
2023-03-30T01:17:47.906Z,643.00
2023-03-30T01:18:47.938Z,643.00
2023-03-30T01:19:47.990Z,644.00
2023-03-30T01:20:48.032Z,643.00
2023-03-30T01:21:48.083Z,639.00
2023-03-30T01:22:48.125Z,638.00
2023-03-30T01:23:48.194Z,642.00
2023-03-30T01:24:48.226Z,642.00
2023-03-30T01:25:48.284Z,640.00
2023-03-30T01:26:48.276Z,639.00
2023-03-30T01:27:48.286Z,639.00
2023-03-30T01:28:48.297Z,637.00
2023-03-30T01:29:48.288Z,635.00
2023-03-30T01:30:48.300Z,637.00
2023-03-30T01:31:48.369Z,644.00
2023-03-30T01:32:48.332Z,645.00
2023-03-30T01:33:48.307Z,646.00
2023-03-30T01:34:48.319Z,649.00
2023-03-30T01:35:48.439Z,650.00
2023-03-30T01:36:48.322Z,648.00
2023-03-30T01:37:48.345Z,647.00
2023-03-30T01:38:48.348Z,646.00
2023-03-30T01:39:48.363Z,647.00
2023-03-30T01:40:48.361Z,642.00
2023-03-30T01:41:48.385Z,641.00
2023-03-30T01:42:48.387Z,638.00
2023-03-30T01:43:48.394Z,636.00
2023-03-30T01:44:48.432Z,636.00
2023-03-30T01:45:48.422Z,635.00
2023-03-30T01:46:48.455Z,633.00
2023-03-30T01:47:48.449Z,632.00
2023-03-30T01:48:48.425Z,634.00
2023-03-30T01:49:48.419Z,632.00
2023-03-30T01:50:48.409Z,632.00
2023-03-30T01:51:48.419Z,634.00
2023-03-30T01:52:50.298Z,635.00
2023-03-30T01:53:48.417Z,635.00
2023-03-30T01:54:48.427Z,635.00
2023-03-30T01:55:48.440Z,636.00
2023-03-30T01:56:48.547Z,637.00
2023-03-30T01:57:48.547Z,634.00
2023-03-30T01:58:48.599Z,635.00
2023-03-30T01:59:48.660Z,637.00
2023-03-30T02:00:48.729Z,637.00
2023-03-30T02:01:48.812Z,637.00
2023-03-30T02:02:48.912Z,637.00
2023-03-30T02:03:48.946Z,638.00
2023-03-30T02:04:48.960Z,644.00
2023-03-30T02:05:49.008Z,645.00
2023-03-30T02:06:49.072Z,646.00
2023-03-30T02:07:49.110Z,648.00
2023-03-30T02:08:49.153Z,647.00
2023-03-30T02:09:49.237Z,646.00
2023-03-30T02:10:49.272Z,644.00
2023-03-30T02:11:49.329Z,646.00
2023-03-30T02:12:49.369Z,648.00
2023-03-30T02:13:49.438Z,649.00
2023-03-30T02:14:49.494Z,647.00
2023-03-30T02:15:49.536Z,648.00
2023-03-30T02:16:49.616Z,649.00
2023-03-30T02:17:49.671Z,651.00
2023-03-30T02:18:49.707Z,648.00
2023-03-30T02:19:49.759Z,650.00
2023-03-30T02:20:49.814Z,649.00
2023-03-30T02:21:49.852Z,644.00
2023-03-30T02:22:49.917Z,643.00
2023-03-30T02:23:49.909Z,643.00
2023-03-30T02:24:49.932Z,646.00
2023-03-30T02:25:49.934Z,645.00
2023-03-30T02:26:49.941Z,645.00
2023-03-30T02:27:49.965Z,642.00
2023-03-30T02:28:49.970Z,640.00
2023-03-30T02:29:49.970Z,639.00
2023-03-30T02:30:49.970Z,642.00
2023-03-30T02:31:49.995Z,644.00
2023-03-30T02:32:49.980Z,646.00
2023-03-30T02:33:49.975Z,646.00
2023-03-30T02:34:50.013Z,648.00
2023-03-30T02:35:50.062Z,646.00
2023-03-30T02:36:50.093Z,646.00
2023-03-30T02:37:50.147Z,645.00
2023-03-30T02:38:50.153Z,643.00
2023-03-30T02:39:50.160Z,640.00
2023-03-30T02:40:50.149Z,640.00
2023-03-30T02:41:50.168Z,636.00
2023-03-30T02:42:50.154Z,637.00
2023-03-30T02:43:50.137Z,634.00
2023-03-30T02:44:50.145Z,638.00
2023-03-30T02:45:50.178Z,640.00
2023-03-30T02:46:50.145Z,638.00
2023-03-30T02:47:50.166Z,640.00
2023-03-30T02:48:50.166Z,638.00
2023-03-30T02:49:50.241Z,639.00
2023-03-30T02:50:50.273Z,637.00
2023-03-30T02:51:50.323Z,639.00
2023-03-30T02:52:50.401Z,637.00
2023-03-30T02:53:50.432Z,637.00
2023-03-30T02:54:50.516Z,636.00
2023-03-30T02:55:50.556Z,635.00
2023-03-30T02:56:50.627Z,633.00
2023-03-30T02:57:50.665Z,632.00
2023-03-30T02:58:50.708Z,627.00
2023-03-30T02:59:50.789Z,621.00
2023-03-30T03:00:50.876Z,615.00
2023-03-30T03:01:50.981Z,610.00
2023-03-30T03:02:50.986Z,605.00
2023-03-30T03:03:51.057Z,598.00
2023-03-30T03:04:51.083Z,579.00
2023-03-30T03:05:51.147Z,572.00
2023-03-30T03:06:51.221Z,567.00
2023-03-30T03:07:51.265Z,566.00
2023-03-30T03:08:51.332Z,564.00
2023-03-30T03:09:51.382Z,559.00
2023-03-30T03:10:51.452Z,554.00
2023-03-30T03:11:51.516Z,549.00
2023-03-30T03:12:51.580Z,541.00
2023-03-30T03:13:51.648Z,540.00
2023-03-30T03:14:51.728Z,534.00
2023-03-30T03:15:51.801Z,529.00
2023-03-30T03:16:51.931Z,523.00
2023-03-30T03:17:51.973Z,520.00
2023-03-30T03:18:51.992Z,515.00
2023-03-30T03:19:52.070Z,511.00
2023-03-30T03:20:52.121Z,506.00
2023-03-30T03:21:52.165Z,503.00
2023-03-30T03:22:52.212Z,502.00
2023-03-30T03:23:52.242Z,502.00
2023-03-30T03:24:52.289Z,500.00
2023-03-30T03:25:52.355Z,498.00
2023-03-30T03:26:52.345Z,494.00
2023-03-30T03:27:52.356Z,491.00
2023-03-30T03:28:52.356Z,490.00
2023-03-30T03:29:52.369Z,487.00
2023-03-30T03:30:52.433Z,487.00
2023-03-30T03:31:52.387Z,487.00
2023-03-30T03:32:52.444Z,485.00
2023-03-30T03:33:52.393Z,484.00
2023-03-30T03:34:52.393Z,485.00
2023-03-30T03:35:52.417Z,483.00
2023-03-30T03:36:52.413Z,482.00
2023-03-30T03:37:52.420Z,481.00
2023-03-30T03:38:52.433Z,481.00
2023-03-30T03:39:52.446Z,478.00
2023-03-30T03:40:52.457Z,472.00
2023-03-30T03:41:52.429Z,471.00
2023-03-30T03:42:52.425Z,474.00
2023-03-30T03:43:52.426Z,475.00
2023-03-30T03:44:52.439Z,474.00
2023-03-30T03:45:52.469Z,472.00
2023-03-30T03:46:52.537Z,473.00
2023-03-30T03:47:52.519Z,472.00
2023-03-30T03:48:52.491Z,469.00
2023-03-30T03:49:52.488Z,467.00
2023-03-30T03:50:52.492Z,468.00
2023-03-30T03:51:52.501Z,469.00
2023-03-30T03:52:52.544Z,466.00
2023-03-30T03:53:52.531Z,465.00
2023-03-30T03:54:52.509Z,464.00
2023-03-30T03:55:52.530Z,461.00
2023-03-30T03:56:52.543Z,461.00
2023-03-30T03:57:52.539Z,463.00
2023-03-30T03:58:52.562Z,461.00
2023-03-30T03:59:52.553Z,461.00
2023-03-30T04:00:52.657Z,460.00
2023-03-30T04:01:52.599Z,459.00
2023-03-30T04:02:52.620Z,458.00
2023-03-30T04:03:52.570Z,456.00
2023-03-30T04:04:52.636Z,455.00
2023-03-30T04:05:52.624Z,455.00
2023-03-30T04:06:52.598Z,455.00
2023-03-30T04:07:52.597Z,456.00
2023-03-30T04:08:52.600Z,460.00
2023-03-30T04:09:52.632Z,459.00
2023-03-30T04:10:52.650Z,458.00
2023-03-30T04:11:52.692Z,457.00
2023-03-30T04:12:52.708Z,455.00
2023-03-30T04:13:52.738Z,455.00
2023-03-30T04:14:52.762Z,452.00
2023-03-30T04:15:52.810Z,450.00
2023-03-30T04:16:52.925Z,451.00
2023-03-30T04:17:52.900Z,450.00
2023-03-30T04:18:52.915Z,450.00
2023-03-30T04:19:52.962Z,451.00
2023-03-30T04:20:52.994Z,452.00
2023-03-30T04:21:53.042Z,452.00
2023-03-30T04:22:53.080Z,451.00
2023-03-30T04:23:53.134Z,450.00
2023-03-30T04:24:53.168Z,451.00
2023-03-30T04:25:53.195Z,452.00
2023-03-30T04:26:53.244Z,452.00
2023-03-30T04:27:53.333Z,453.00
2023-03-30T04:28:53.346Z,451.00
2023-03-30T04:29:53.372Z,449.00
2023-03-30T04:30:53.413Z,449.00
2023-03-30T04:31:53.595Z,448.00
2023-03-30T04:32:53.532Z,447.00
2023-03-30T04:33:53.598Z,447.00
2023-03-30T04:34:53.610Z,448.00
2023-03-30T04:35:53.676Z,447.00
2023-03-30T04:36:53.698Z,447.00
2023-03-30T04:37:53.742Z,448.00
2023-03-30T04:38:53.797Z,449.00
2023-03-30T04:39:53.846Z,454.00
2023-03-30T04:40:53.905Z,455.00
2023-03-30T04:41:53.954Z,455.00
2023-03-30T04:42:54.014Z,455.00
2023-03-30T04:43:54.063Z,454.00
2023-03-30T04:44:54.108Z,454.00
2023-03-30T04:45:54.172Z,452.00
2023-03-30T04:46:54.212Z,455.00
2023-03-30T04:47:54.338Z,452.00
2023-03-30T04:48:54.301Z,450.00
2023-03-30T04:49:54.359Z,451.00
2023-03-30T04:50:54.414Z,451.00
2023-03-30T04:51:54.470Z,451.00
2023-03-30T04:52:54.536Z,451.00
2023-03-30T04:53:54.581Z,453.00
2023-03-30T04:54:54.634Z,454.00
2023-03-30T04:55:54.683Z,453.00
2023-03-30T04:56:54.772Z,449.00
2023-03-30T04:57:54.793Z,447.00
2023-03-30T04:58:54.849Z,446.00
2023-03-30T04:59:54.920Z,447.00
2023-03-30T05:00:54.997Z,448.00
2023-03-30T05:01:54.999Z,447.00
2023-03-30T05:02:55.180Z,446.00
2023-03-30T05:03:55.138Z,448.00
2023-03-30T05:04:55.176Z,446.00
2023-03-30T05:05:55.237Z,448.00
2023-03-30T05:06:55.312Z,447.00
2023-03-30T05:07:55.348Z,446.00
2023-03-30T05:08:55.415Z,446.00
2023-03-30T05:09:55.529Z,446.00
2023-03-30T05:10:55.545Z,449.00
2023-03-30T05:11:55.577Z,451.00
2023-03-30T05:12:55.630Z,450.00
2023-03-30T05:13:55.691Z,450.00
2023-03-30T05:14:55.735Z,448.00
2023-03-30T05:15:55.791Z,446.00
2023-03-30T05:16:55.916Z,441.00
2023-03-30T05:17:55.949Z,440.00
2023-03-30T05:18:55.972Z,440.00
2023-03-30T05:19:56.020Z,444.00
2023-03-30T05:20:56.086Z,445.00
2023-03-30T05:21:56.084Z,447.00
2023-03-30T05:22:56.095Z,452.00
2023-03-30T05:23:56.119Z,458.00
2023-03-30T05:24:56.124Z,461.00
2023-03-30T05:25:56.193Z,462.00
2023-03-30T05:26:56.138Z,465.00
2023-03-30T05:27:56.162Z,467.00
2023-03-30T05:28:56.952Z,466.00
2023-03-30T05:29:56.461Z,467.00
2023-03-30T05:30:56.487Z,468.00
2023-03-30T05:31:56.513Z,469.00
2023-03-30T05:32:56.540Z,481.00
2023-03-30T05:33:56.538Z,579.00
2023-03-30T05:34:56.555Z,613.00
2023-03-30T05:35:56.579Z,615.00
2023-03-30T05:36:56.593Z,619.00
2023-03-30T05:37:56.580Z,662.00
2023-03-30T05:38:56.583Z,682.00
2023-03-30T05:39:56.601Z,686.00
2023-03-30T05:40:56.606Z,718.00
2023-03-30T05:41:56.738Z,736.00
2023-03-30T05:42:56.649Z,742.00
2023-03-30T05:43:56.703Z,786.00
2023-03-30T05:44:56.671Z,803.00
2023-03-30T05:45:56.690Z,810.00
2023-03-30T05:46:56.689Z,828.00
2023-03-30T05:47:56.717Z,839.00
2023-03-30T05:48:56.835Z,856.00
2023-03-30T05:49:56.717Z,881.00
2023-03-30T05:50:56.716Z,882.00
2023-03-30T05:51:56.727Z,878.00
2023-03-30T05:52:56.736Z,875.00
2023-03-30T05:53:56.755Z,875.00
2023-03-30T05:54:56.758Z,875.00
2023-03-30T05:55:56.766Z,871.00
2023-03-30T05:56:56.859Z,865.00
2023-03-30T05:57:56.817Z,860.00
2023-03-30T05:58:56.798Z,848.00
2023-03-30T05:59:56.802Z,840.00
2023-03-30T06:00:56.847Z,826.00
2023-03-30T06:01:56.839Z,819.00
2023-03-30T06:02:56.900Z,818.00
2023-03-30T06:03:56.992Z,806.00
2023-03-30T06:04:56.947Z,800.00
2023-03-30T06:05:56.916Z,793.00
2023-03-30T06:06:56.950Z,786.00
2023-03-30T06:07:56.991Z,781.00
2023-03-30T06:08:56.993Z,778.00
2023-03-30T06:09:57.034Z,779.00
2023-03-30T06:10:57.070Z,773.00
2023-03-30T06:11:57.055Z,770.00
2023-03-30T06:12:57.092Z,765.00
2023-03-30T06:13:57.101Z,760.00
2023-03-30T06:14:57.144Z,753.00
2023-03-30T06:15:57.409Z,747.00
2023-03-30T06:16:57.380Z,741.00
2023-03-30T06:17:57.503Z,733.00
2023-03-30T06:18:57.206Z,728.00
2023-03-30T06:19:57.293Z,718.00
2023-03-30T06:20:57.238Z,709.00
2023-03-30T06:21:57.241Z,703.00
2023-03-30T06:22:57.250Z,696.00
2023-03-30T06:23:57.264Z,691.00
2023-03-30T06:24:57.288Z,681.00
2023-03-30T06:25:57.322Z,670.00
2023-03-30T06:26:57.321Z,676.00
2023-03-30T06:27:57.354Z,702.00
2023-03-30T06:28:57.356Z,720.00
2023-03-30T06:29:57.367Z,795.00
2023-03-30T06:30:57.400Z,791.00
2023-03-30T06:31:57.510Z,783.00
2023-03-30T06:32:57.488Z,784.00
2023-03-30T06:33:57.446Z,790.00
2023-03-30T06:34:57.482Z,793.00
2023-03-30T06:35:57.500Z,792.00
2023-03-30T06:36:57.477Z,787.00
2023-03-30T06:37:57.473Z,790.00
2023-03-30T06:38:57.497Z,789.00
2023-03-30T06:39:57.513Z,796.00
2023-03-30T06:40:57.521Z,800.00
2023-03-30T06:41:57.512Z,809.00
2023-03-30T06:42:57.592Z,852.00
2023-03-30T06:43:57.592Z,847.00
2023-03-30T06:44:57.567Z,842.00
2023-03-30T06:45:57.586Z,832.00
2023-03-30T06:46:57.570Z,788.00
2023-03-30T06:47:57.612Z,864.00
2023-03-30T06:48:57.570Z,847.00
2023-03-30T06:49:57.600Z,849.00
2023-03-30T06:50:57.591Z,856.00
2023-03-30T06:51:57.579Z,866.00
2023-03-30T06:52:57.615Z,932.00
2023-03-30T06:53:57.620Z,950.00
2023-03-30T06:54:57.652Z,951.00
2023-03-30T06:55:57.768Z,954.00
2023-03-30T06:56:57.851Z,957.00
2023-03-30T06:57:57.875Z,956.00
2023-03-30T06:58:57.925Z,962.00
2023-03-30T06:59:58.154Z,969.00
2023-03-30T07:00:58.122Z,976.00
2023-03-30T07:01:58.184Z,986.00
2023-03-30T07:02:58.287Z,999.00
2023-03-30T07:03:58.289Z,1010.00
2023-03-30T07:04:58.338Z,1027.00
2023-03-30T07:05:58.414Z,1033.00
2023-03-30T07:06:58.449Z,1045.00
2023-03-30T07:07:58.501Z,1050.00
2023-03-30T07:08:58.554Z,1054.00
2023-03-30T07:09:58.588Z,1059.00
2023-03-30T07:10:58.630Z,1068.00
2023-03-30T07:11:58.672Z,1081.00
2023-03-30T07:12:58.797Z,1092.00
2023-03-30T07:13:58.798Z,1089.00
2023-03-30T07:14:58.799Z,1091.00
2023-03-30T07:15:58.840Z,1102.00
2023-03-30T07:16:58.940Z,1112.00
2023-03-30T07:17:58.993Z,1113.00
2023-03-30T07:18:58.992Z,1104.00
2023-03-30T07:19:59.044Z,1090.00
2023-03-30T07:20:59.055Z,1071.00
2023-03-30T07:21:59.092Z,1015.00
2023-03-30T07:22:59.138Z,955.00
2023-03-30T07:23:59.195Z,953.00
2023-03-30T07:24:59.238Z,945.00
2023-03-30T07:25:59.232Z,853.00
2023-03-30T07:26:59.247Z,847.00
2023-03-30T07:27:59.236Z,843.00
2023-03-30T07:28:59.240Z,835.00
2023-03-30T07:30:10.202Z,757.00
2023-03-30T07:31:00.289Z,740.00
2023-03-30T07:31:59.298Z,734.00
2023-03-30T07:32:59.415Z,742.00
2023-03-30T07:33:59.279Z,749.00
2023-03-30T07:34:59.284Z,762.00
2023-03-30T07:35:59.324Z,814.00
2023-03-30T07:36:59.360Z,808.00
2023-03-30T07:38:03.376Z,818.00
2023-03-30T07:38:59.306Z,830.00
2023-03-30T07:39:59.326Z,836.00
2023-03-30T07:40:59.325Z,846.00
2023-03-30T07:41:59.323Z,853.00
2023-03-30T07:42:59.338Z,848.00
2023-03-30T07:43:59.337Z,770.00
2023-03-30T07:44:59.341Z,772.00
2023-03-30T07:45:59.408Z,773.00
2023-03-30T07:46:59.364Z,773.00
2023-03-30T07:47:59.391Z,744.00
2023-03-30T07:48:59.402Z,735.00
2023-03-30T07:49:59.402Z,732.00
2023-03-30T07:50:59.409Z,724.00
2023-03-30T07:51:59.429Z,722.00
2023-03-30T07:52:59.478Z,712.00
2023-03-30T07:53:59.490Z,701.00
2023-03-30T07:54:59.484Z,684.00
2023-03-30T07:55:59.515Z,675.00
2023-03-30T07:56:59.534Z,647.00
2023-03-30T07:57:59.535Z,646.00
2023-03-30T07:59:01.651Z,643.00
2023-03-30T07:59:59.535Z,646.00
2023-03-30T08:00:59.597Z,651.00
2023-03-30T08:01:59.610Z,654.00
2023-03-30T08:02:59.747Z,645.00
2023-03-30T08:03:59.704Z,640.00
2023-03-30T08:04:59.842Z,635.00
2023-03-30T08:05:59.684Z,632.00
2023-03-30T08:06:59.709Z,629.00
2023-03-30T08:07:59.715Z,625.00
2023-03-30T08:08:59.778Z,621.00
2023-03-30T08:09:59.751Z,616.00
2023-03-30T08:10:59.781Z,613.00
2023-03-30T08:11:59.785Z,612.00
2023-03-30T08:12:59.838Z,612.00
2023-03-30T08:13:59.857Z,609.00
2023-03-30T08:14:59.958Z,606.00
2023-03-30T08:15:59.912Z,606.00
2023-03-30T08:16:59.930Z,605.00
2023-03-30T08:17:59.983Z,605.00
2023-03-30T08:18:59.982Z,603.00
2023-03-30T08:19:59.970Z,597.00
2023-03-30T08:20:59.987Z,589.00
2023-03-30T08:21:59.985Z,581.00
2023-03-30T08:22:59.991Z,561.00
2023-03-30T08:24:00.004Z,559.00
2023-03-30T08:25:00.035Z,558.00
2023-03-30T08:26:00.013Z,555.00
2023-03-30T08:27:00.048Z,557.00
2023-03-30T08:28:00.015Z,558.00
2023-03-30T08:29:00.110Z,555.00
2023-03-30T08:30:00.030Z,554.00
2023-03-30T08:31:00.154Z,554.00
2023-03-30T08:32:00.114Z,552.00
2023-03-30T08:33:00.171Z,555.00
2023-03-30T08:34:00.067Z,559.00
2023-03-30T08:35:00.126Z,566.00
2023-03-30T08:36:00.133Z,603.00
2023-03-30T08:37:00.144Z,610.00
2023-03-30T08:38:00.147Z,604.00
2023-03-30T08:39:00.120Z,587.00
2023-03-30T08:40:00.121Z,580.00
2023-03-30T08:41:00.182Z,575.00
2023-03-30T08:42:00.110Z,566.00
2023-03-30T08:43:00.178Z,559.00
2023-03-30T08:44:00.119Z,554.00
2023-03-30T08:45:00.152Z,549.00
2023-03-30T08:46:00.297Z,557.00
2023-03-30T08:47:00.158Z,567.00
2023-03-30T08:48:00.187Z,593.00
2023-03-30T08:49:00.200Z,607.00
2023-03-30T08:50:00.191Z,609.00
2023-03-30T08:51:00.198Z,611.00
2023-03-30T08:52:02.574Z,611.00
2023-03-30T08:53:00.223Z,614.00
2023-03-30T08:54:00.225Z,611.00
2023-03-30T08:55:00.247Z,608.00
2023-03-30T08:56:00.254Z,605.00
2023-03-30T08:57:00.296Z,603.00
2023-03-30T08:58:00.263Z,607.00
2023-03-30T08:59:00.300Z,602.00
2023-03-30T09:00:00.338Z,600.00
2023-03-30T09:01:00.347Z,598.00
2023-03-30T09:02:00.442Z,599.00
2023-03-30T09:03:00.390Z,598.00
2023-03-30T09:04:00.323Z,598.00
2023-03-30T09:05:00.362Z,594.00
2023-03-30T09:06:00.334Z,594.00
2023-03-30T09:07:00.329Z,593.00
2023-03-30T09:08:00.333Z,595.00
2023-03-30T09:09:00.356Z,593.00
2023-03-30T09:10:00.361Z,594.00
2023-03-30T09:11:00.367Z,594.00
2023-03-30T09:12:00.411Z,597.00
2023-03-30T09:13:00.458Z,602.00
2023-03-30T09:14:00.501Z,612.00
2023-03-30T09:15:00.572Z,617.00
2023-03-30T09:16:00.642Z,617.00
2023-03-30T09:17:00.788Z,614.00
2023-03-30T09:18:00.886Z,613.00
2023-03-30T09:19:00.857Z,611.00
2023-03-30T09:20:00.939Z,603.00
2023-03-30T09:21:01.013Z,596.00
2023-03-30T09:22:01.099Z,594.00
2023-03-30T09:23:01.209Z,594.00
2023-03-30T09:24:01.258Z,588.00
2023-03-30T09:25:01.317Z,577.00
2023-03-30T09:26:01.661Z,576.00
2023-03-30T09:27:01.460Z,577.00
2023-03-30T09:28:01.535Z,577.00
2023-03-30T09:29:01.621Z,577.00
2023-03-30T09:30:01.669Z,573.00
2023-03-30T09:31:01.803Z,571.00
2023-03-30T09:32:01.831Z,568.00
2023-03-30T09:33:01.959Z,566.00
2023-03-30T09:34:01.968Z,561.00
2023-03-30T09:35:02.020Z,557.00
2023-03-30T09:36:02.254Z,553.00
2023-03-30T09:37:02.183Z,552.00
2023-03-30T09:38:02.223Z,552.00
2023-03-30T09:39:02.293Z,550.00
2023-03-30T09:40:02.359Z,544.00
2023-03-30T09:41:02.619Z,540.00
2023-03-30T09:42:02.499Z,539.00
2023-03-30T09:43:02.572Z,541.00
2023-03-30T09:44:02.694Z,537.00
2023-03-30T09:45:02.732Z,538.00
2023-03-30T09:46:02.969Z,538.00
2023-03-30T09:47:02.866Z,538.00
2023-03-30T09:48:02.983Z,541.00
2023-03-30T09:49:03.003Z,538.00
2023-03-30T09:50:03.086Z,537.00
2023-03-30T09:51:03.128Z,537.00
2023-03-30T09:52:03.203Z,537.00
2023-03-30T09:53:03.263Z,532.00
2023-03-30T09:54:03.339Z,533.00
2023-03-30T09:55:03.405Z,534.00
2023-03-30T09:56:03.666Z,532.00
2023-03-30T09:57:03.547Z,533.00
2023-03-30T09:58:03.615Z,531.00
2023-03-30T09:59:03.705Z,536.00
2023-03-30T10:00:03.761Z,538.00
2023-03-30T10:01:03.875Z,537.00
2023-03-30T10:02:03.892Z,537.00
2023-03-30T10:03:03.969Z,536.00
2023-03-30T10:04:03.993Z,536.00
2023-03-30T10:05:03.973Z,534.00
2023-03-30T10:06:04.105Z,533.00
2023-03-30T10:07:16.510Z,533.00
2023-03-30T10:08:04.927Z,534.00
2023-03-30T10:09:03.908Z,537.00
2023-03-30T10:10:03.928Z,534.00
2023-03-30T10:11:03.929Z,531.00
2023-03-30T10:12:03.933Z,535.00
2023-03-30T10:13:03.941Z,533.00
2023-03-30T10:14:03.933Z,532.00
2023-03-30T10:15:03.938Z,531.00
2023-03-30T10:16:04.130Z,531.00
2023-03-30T10:17:03.954Z,530.00
2023-03-30T10:18:04.002Z,526.00
2023-03-30T10:19:03.973Z,528.00
2023-03-30T10:20:13.564Z,531.00
2023-03-30T10:21:05.003Z,533.00
2023-03-30T10:22:03.989Z,532.00
2023-03-30T10:23:03.995Z,533.00
2023-03-30T10:24:04.028Z,531.00
2023-03-30T10:25:04.026Z,529.00
2023-03-30T10:26:04.600Z,529.00
2023-03-30T10:27:04.031Z,531.00
2023-03-30T10:28:04.046Z,531.00
2023-03-30T10:29:04.061Z,531.00
2023-03-30T10:30:04.097Z,533.00
2023-03-30T10:31:04.162Z,535.00
2023-03-30T10:32:04.168Z,534.00
2023-03-30T10:33:04.129Z,532.00
2023-03-30T10:34:04.098Z,532.00
2023-03-30T10:35:04.136Z,531.00
2023-03-30T10:36:04.364Z,528.00
2023-03-30T10:37:04.102Z,525.00
2023-03-30T10:38:04.109Z,526.00
2023-03-30T10:39:04.112Z,527.00
2023-03-30T10:40:04.128Z,533.00
2023-03-30T10:41:04.124Z,537.00
2023-03-30T10:42:04.152Z,539.00
2023-03-30T10:43:04.125Z,537.00
2023-03-30T10:44:04.123Z,536.00
2023-03-30T10:45:04.121Z,537.00
2023-03-30T10:46:16.743Z,538.00
2023-03-30T10:47:05.226Z,536.00
2023-03-30T10:48:04.188Z,540.00
2023-03-30T10:49:04.124Z,538.00
2023-03-30T10:50:04.137Z,538.00
2023-03-30T10:51:04.132Z,535.00
2023-03-30T10:52:04.133Z,532.00
2023-03-30T10:53:04.141Z,530.00
2023-03-30T10:54:04.132Z,538.00
2023-03-30T10:55:04.141Z,537.00
2023-03-30T10:56:05.243Z,537.00
2023-03-30T10:57:04.182Z,535.00
2023-03-30T10:58:04.155Z,534.00
2023-03-30T10:59:04.143Z,535.00
2023-03-30T11:00:04.142Z,544.00
2023-03-30T11:01:04.171Z,547.00
2023-03-30T11:02:04.216Z,547.00
2023-03-30T11:03:04.333Z,543.00
2023-03-30T11:04:16.089Z,536.00
2023-03-30T11:05:05.257Z,537.00
2023-03-30T11:06:04.355Z,530.00
2023-03-30T11:07:04.270Z,532.00
2023-03-30T11:08:04.268Z,533.00
2023-03-30T11:09:04.261Z,529.00
2023-03-30T11:10:04.269Z,525.00
2023-03-30T11:11:04.266Z,520.00
2023-03-30T11:12:04.277Z,518.00
2023-03-30T11:13:04.266Z,516.00
2023-03-30T11:14:04.267Z,518.00
2023-03-30T11:15:04.266Z,519.00
2023-03-30T11:16:04.441Z,518.00
2023-03-30T11:17:04.316Z,519.00
2023-03-30T11:18:04.326Z,518.00
2023-03-30T11:19:04.321Z,519.00
2023-03-30T11:20:04.280Z,520.00
2023-03-30T11:21:04.250Z,525.00
2023-03-30T11:22:04.257Z,528.00
2023-03-30T11:23:04.250Z,527.00
2023-03-30T11:24:04.272Z,534.00
2023-03-30T11:25:04.265Z,533.00
2023-03-30T11:26:04.503Z,528.00
2023-03-30T11:27:04.235Z,528.00
2023-03-30T11:28:04.224Z,527.00
2023-03-30T11:29:04.217Z,530.00
2023-03-30T11:30:04.207Z,533.00
2023-03-30T11:31:04.205Z,531.00
2023-03-30T11:32:04.261Z,528.00
2023-03-30T11:33:04.259Z,528.00
2023-03-30T11:34:04.208Z,529.00
2023-03-30T11:35:04.208Z,533.00
2023-03-30T11:36:04.433Z,532.00
2023-03-30T11:37:04.216Z,528.00
2023-03-30T11:38:04.212Z,528.00
2023-03-30T11:39:04.203Z,525.00
2023-03-30T11:40:04.217Z,525.00
2023-03-30T11:41:04.191Z,526.00
2023-03-30T11:42:04.211Z,523.00
2023-03-30T11:43:04.184Z,526.00
2023-03-30T11:44:04.183Z,524.00
2023-03-30T11:45:04.178Z,526.00
2023-03-30T11:46:04.538Z,528.00
2023-03-30T11:47:04.161Z,531.00
2023-03-30T11:48:04.203Z,531.00
2023-03-30T11:49:04.138Z,531.00
2023-03-30T11:50:04.131Z,526.00
2023-03-30T11:51:04.369Z,526.00
2023-03-30T11:52:04.308Z,527.00
2023-03-30T11:53:04.376Z,528.00
2023-03-30T11:54:04.474Z,528.00
2023-03-30T11:55:04.702Z,531.00
2023-03-30T11:56:04.809Z,537.00
2023-03-30T11:57:04.597Z,537.00
2023-03-30T11:58:06.688Z,535.00
2023-03-30T11:59:04.532Z,537.00
2023-03-30T12:00:04.525Z,539.00
2023-03-30T12:01:04.688Z,542.00
2023-03-30T12:02:04.549Z,548.00
2023-03-30T12:03:04.696Z,548.00
2023-03-30T12:04:10.201Z,556.00
2023-03-30T12:05:05.550Z,556.00
2023-03-30T12:06:04.670Z,558.00
2023-03-30T12:07:04.493Z,555.00
2023-03-30T12:08:04.499Z,553.00
2023-03-30T12:09:04.532Z,556.00
2023-03-30T12:10:06.728Z,562.00
2023-03-30T12:11:04.557Z,562.00
2023-03-30T12:12:04.478Z,558.00
2023-03-30T12:13:04.467Z,555.00
2023-03-30T12:14:04.443Z,553.00
2023-03-30T12:15:04.448Z,559.00
2023-03-30T12:16:04.589Z,560.00
2023-03-30T12:17:04.422Z,566.00
2023-03-30T12:18:04.517Z,569.00
2023-03-30T12:19:04.416Z,569.00
2023-03-30T12:20:04.432Z,562.00
2023-03-30T12:21:04.393Z,561.00
2023-03-30T12:22:04.391Z,560.00
2023-03-30T12:23:04.414Z,564.00
2023-03-30T12:24:04.386Z,562.00
2023-03-30T12:25:04.376Z,564.00
2023-03-30T12:26:04.526Z,555.00
2023-03-30T12:27:06.408Z,550.00
2023-03-30T12:28:04.354Z,547.00